createdAt,value
2018-12-14T00:01:57.434Z,92.80
2018-12-14T00:04:25.681Z,93.10
2018-12-14T00:06:53.887Z,93.10
2018-12-14T00:09:22.095Z,93.00
2018-12-14T00:11:50.346Z,93.20
2018-12-14T00:14:18.564Z,93.40
2018-12-14T00:16:46.870Z,93.10
2018-12-14T00:19:15.265Z,92.90
2018-12-14T00:21:43.638Z,93.10
2018-12-14T00:24:11.855Z,92.90
2018-12-14T00:26:40.160Z,93.20
2018-12-14T00:29:08.377Z,93.20
2018-12-14T00:31:36.681Z,93.00
2018-12-14T00:34:04.993Z,92.70
2018-12-14T00:36:33.217Z,93.10
2018-12-14T00:39:01.524Z,93.10
2018-12-14T00:41:30.272Z,92.60
2018-12-14T00:43:58.485Z,93.00
2018-12-14T00:46:26.837Z,93.00
2018-12-14T00:48:55.161Z,93.00
2018-12-14T00:51:23.492Z,93.10
2018-12-14T00:53:51.711Z,93.00
2018-12-14T00:56:20.096Z,92.80
2018-12-14T00:58:48.319Z,92.90
2018-12-14T01:01:16.611Z,92.70
2018-12-14T01:03:44.848Z,92.00
2018-12-14T01:06:13.711Z,92.60
2018-12-14T01:08:41.955Z,92.70
2018-12-14T01:11:10.194Z,92.50
2018-12-14T01:13:38.408Z,92.60
2018-12-14T01:16:06.642Z,93.30
2018-12-14T01:18:34.863Z,92.70
2018-12-14T01:21:03.089Z,92.90
2018-12-14T01:23:31.305Z,92.80
2018-12-14T01:25:59.668Z,93.30
2018-12-14T01:28:27.980Z,93.10
2018-12-14T01:30:56.200Z,92.70
2018-12-14T01:33:24.445Z,93.00
2018-12-14T01:35:52.671Z,93.20
2018-12-14T01:38:20.885Z,93.50
2018-12-14T01:40:49.120Z,93.00
2018-12-14T01:43:17.432Z,93.20
2018-12-14T01:45:45.649Z,92.90
2018-12-14T01:48:13.976Z,92.90
2018-12-14T01:50:42.213Z,92.80
2018-12-14T01:53:10.433Z,93.10
2018-12-14T01:55:38.691Z,93.20
2018-12-14T01:58:07.036Z,92.90
2018-12-14T02:00:35.279Z,92.90
2018-12-14T02:03:03.620Z,92.60
2018-12-14T02:05:31.841Z,93.00
2018-12-14T02:08:00.049Z,92.90
2018-12-14T02:10:28.310Z,93.10
2018-12-14T02:12:56.525Z,93.10
2018-12-14T02:15:24.843Z,92.90
2018-12-14T02:17:53.193Z,93.00
2018-12-14T02:20:21.505Z,93.10
2018-12-14T02:22:49.827Z,93.10
2018-12-14T02:25:18.150Z,93.10
2018-12-14T02:27:46.395Z,92.90
2018-12-14T02:30:26.154Z,92.40
2018-12-14T02:32:54.448Z,92.90
2018-12-14T02:35:22.681Z,92.90
2018-12-14T02:37:51.400Z,92.50
2018-12-14T02:40:19.688Z,92.90
2018-12-14T02:42:47.927Z,93.00
2018-12-14T02:45:16.275Z,93.10
2018-12-14T02:47:44.583Z,92.80
2018-12-14T02:50:12.920Z,92.40
2018-12-14T02:52:41.329Z,92.30
2018-12-14T02:55:09.641Z,92.60
2018-12-14T02:57:37.966Z,92.00
2018-12-14T03:00:06.545Z,92.60
2018-12-14T03:02:34.850Z,92.90
2018-12-14T03:05:03.363Z,91.80
2018-12-14T03:07:31.676Z,91.90
2018-12-14T03:09:59.891Z,91.50
2018-12-14T03:12:28.195Z,91.70
2018-12-14T03:14:56.543Z,92.10
2018-12-14T03:17:25.083Z,91.90
2018-12-14T03:19:53.557Z,91.70
2018-12-14T03:22:22.308Z,92.20
2018-12-14T03:24:50.537Z,92.50
2018-12-14T03:27:18.779Z,92.00
2018-12-14T03:29:47.100Z,91.90
2018-12-14T03:32:15.542Z,92.50
2018-12-14T03:34:43.848Z,92.20
2018-12-14T03:37:12.099Z,92.10
2018-12-14T03:39:40.332Z,91.80
2018-12-14T03:42:08.758Z,91.70
2018-12-14T03:44:37.063Z,91.70
2018-12-14T03:47:05.293Z,91.70
2018-12-14T03:49:33.597Z,91.90
2018-12-14T03:52:01.845Z,91.50
2018-12-14T03:54:30.061Z,91.40
2018-12-14T03:56:58.375Z,92.00
2018-12-14T03:59:26.668Z,91.90
2018-12-14T04:01:54.954Z,91.50
2018-12-14T04:04:23.164Z,91.30
2018-12-14T04:06:51.733Z,91.70
2018-12-14T04:09:20.052Z,92.00
2018-12-14T04:11:48.259Z,91.70
2018-12-14T04:14:16.503Z,91.50
2018-12-14T04:16:44.733Z,91.10
2018-12-14T04:19:12.993Z,91.50
2018-12-14T04:21:41.298Z,91.60
2018-12-14T04:24:09.683Z,91.30
2018-12-14T04:26:37.977Z,91.10
2018-12-14T04:29:06.214Z,91.50
2018-12-14T04:31:34.512Z,91.10
2018-12-14T04:34:02.798Z,91.50
2018-12-14T04:36:31.114Z,91.40
2018-12-14T04:38:59.408Z,90.60
2018-12-14T04:41:27.608Z,91.40
2018-12-14T04:43:55.854Z,91.70
2018-12-14T04:46:24.144Z,91.20
2018-12-14T04:48:52.355Z,91.20
2018-12-14T04:51:20.670Z,90.60
2018-12-14T04:53:48.888Z,91.40
2018-12-14T04:56:17.115Z,91.20
2018-12-14T04:58:45.496Z,91.10
2018-12-14T05:01:13.814Z,91.20
2018-12-14T05:03:42.117Z,91.60
2018-12-14T05:06:10.353Z,91.00
2018-12-14T05:08:38.569Z,91.00
2018-12-14T05:11:06.872Z,91.10
2018-12-14T05:13:35.096Z,91.50
2018-12-14T05:16:03.405Z,90.40
2018-12-14T05:18:31.611Z,91.00
2018-12-14T05:20:59.828Z,91.20
2018-12-14T05:23:28.031Z,91.10
2018-12-14T05:25:56.240Z,91.20
2018-12-14T05:28:24.552Z,90.50
2018-12-14T05:30:52.759Z,90.90
2018-12-14T05:33:20.967Z,90.70
2018-12-14T05:35:49.292Z,91.30
2018-12-14T05:38:17.488Z,90.80
2018-12-14T05:40:45.703Z,90.80
2018-12-14T05:43:14.015Z,90.10
2018-12-14T05:45:42.265Z,90.50
2018-12-14T05:48:10.471Z,91.00
2018-12-14T05:50:38.700Z,90.70
2018-12-14T05:53:06.912Z,90.50
2018-12-14T05:55:35.163Z,90.60
2018-12-14T05:58:03.450Z,90.20
2018-12-14T06:00:31.721Z,90.00
2018-12-14T06:03:00.497Z,90.30
2018-12-14T06:05:28.788Z,90.80
2018-12-14T06:07:57.003Z,90.60
2018-12-14T06:10:25.292Z,90.50
2018-12-14T06:12:53.605Z,90.70
2018-12-14T06:15:21.938Z,90.70
2018-12-14T06:17:50.148Z,90.30
2018-12-14T06:20:18.411Z,90.20
2018-12-14T06:22:46.656Z,90.20
2018-12-14T06:25:14.860Z,90.30
2018-12-14T06:27:43.169Z,90.40
2018-12-14T06:30:11.393Z,90.20
2018-12-14T06:32:39.686Z,90.30
2018-12-14T06:35:08.025Z,90.80
2018-12-14T06:37:36.230Z,90.20
2018-12-14T06:40:04.960Z,90.10
2018-12-14T06:42:33.333Z,90.50
2018-12-14T06:45:01.652Z,91.10
2018-12-14T06:47:30.737Z,90.50
2018-12-14T06:49:59.074Z,90.70
2018-12-14T06:52:27.305Z,90.60
2018-12-14T06:54:55.599Z,91.10
2018-12-14T06:57:24.904Z,91.40
2018-12-14T06:59:53.418Z,90.60
2018-12-14T07:02:21.653Z,91.00
2018-12-14T07:04:49.969Z,90.50
2018-12-14T07:07:18.178Z,90.70
2018-12-14T07:09:46.391Z,90.60
2018-12-14T07:12:14.696Z,90.20
2018-12-14T07:14:42.915Z,90.60
2018-12-14T07:17:11.157Z,90.90
2018-12-14T07:19:39.473Z,90.10
2018-12-14T07:22:07.778Z,90.20
2018-12-14T07:24:36.068Z,90.80
2018-12-14T07:27:04.500Z,90.40
2018-12-14T07:29:32.710Z,90.30
2018-12-14T07:32:00.941Z,90.20
2018-12-14T07:34:29.324Z,89.30
2018-12-14T07:36:57.524Z,90.00
2018-12-14T07:39:25.815Z,90.20
2018-12-14T07:41:54.076Z,89.70
2018-12-14T07:44:22.321Z,90.30
2018-12-14T07:46:50.592Z,90.20
2018-12-14T07:49:18.825Z,88.80
2018-12-14T07:51:47.055Z,90.10
2018-12-14T07:54:15.299Z,90.20
2018-12-14T07:56:43.629Z,90.20
2018-12-14T07:59:12.028Z,90.20
2018-12-14T08:01:40.342Z,90.30
2018-12-14T08:04:08.657Z,90.50
2018-12-14T08:06:37.043Z,90.30
2018-12-14T08:09:06.980Z,89.90
2018-12-14T08:11:35.476Z,89.80
2018-12-14T08:14:04.072Z,89.20
2018-12-14T08:16:32.375Z,90.00
2018-12-14T08:19:00.662Z,89.20
2018-12-14T08:21:28.864Z,90.20
2018-12-14T08:23:57.075Z,88.90
2018-12-14T08:26:25.445Z,90.00
2018-12-14T08:28:53.686Z,88.70
2018-12-14T08:31:21.904Z,90.40
2018-12-14T08:33:50.212Z,88.60
2018-12-14T08:36:18.448Z,90.00
2018-12-14T08:38:46.665Z,90.10
2018-12-14T08:41:15.044Z,88.80
2018-12-14T08:43:43.295Z,89.70
2018-12-14T08:46:11.504Z,89.90
2018-12-14T08:48:39.720Z,88.90
2018-12-14T08:51:07.920Z,88.60
2018-12-14T08:53:36.229Z,87.90
2018-12-14T08:56:04.620Z,89.00
2018-12-14T08:58:32.920Z,90.00
2018-12-14T09:01:01.136Z,88.90
2018-12-14T09:03:29.463Z,88.80
2018-12-14T09:05:57.668Z,89.00
2018-12-14T09:08:25.909Z,88.90
2018-12-14T09:10:54.135Z,88.80
2018-12-14T09:13:22.357Z,89.50
2018-12-14T09:15:50.584Z,88.40
2018-12-14T09:18:18.791Z,88.20
2018-12-14T09:20:46.998Z,89.80
2018-12-14T09:23:15.405Z,87.70
2018-12-14T09:25:43.671Z,89.30
2018-12-14T09:28:11.888Z,88.60
2018-12-14T09:30:42.754Z,87.50
2018-12-14T09:33:10.672Z,89.00
2018-12-14T09:35:39.041Z,89.70
2018-12-14T09:38:07.225Z,88.80
2018-12-14T09:40:39.110Z,90.00
2018-12-14T09:43:07.304Z,90.20
2018-12-14T09:45:35.523Z,88.10
2018-12-14T09:48:03.853Z,89.40
2018-12-14T09:50:32.049Z,88.90
2018-12-14T09:53:00.383Z,88.40
2018-12-14T09:55:28.706Z,89.00
2018-12-14T09:57:57.013Z,89.10
2018-12-14T10:00:25.237Z,89.40
2018-12-14T10:02:53.446Z,88.80
2018-12-14T10:05:22.053Z,89.00
2018-12-14T10:07:50.269Z,89.30
2018-12-14T10:10:18.496Z,89.10
2018-12-14T10:12:46.799Z,89.70
2018-12-14T10:15:15.012Z,89.50
2018-12-14T10:17:43.325Z,88.00
2018-12-14T10:20:11.829Z,89.40
2018-12-14T10:22:41.639Z,89.00
2018-12-14T10:25:09.956Z,87.50
2018-12-14T10:27:38.157Z,87.80
2018-12-14T10:30:07.292Z,89.40
2018-12-14T10:32:36.055Z,88.50
2018-12-14T10:35:04.984Z,88.50
2018-12-14T10:37:33.284Z,88.70
2018-12-14T10:40:01.548Z,89.00
2018-12-14T10:42:29.753Z,88.60
2018-12-14T10:44:57.992Z,88.70
2018-12-14T10:47:26.333Z,88.10
2018-12-14T10:49:54.544Z,88.50
2018-12-14T10:52:22.757Z,88.10
2018-12-14T10:54:51.299Z,88.90
2018-12-14T10:57:19.524Z,88.10
2018-12-14T10:59:47.744Z,88.40
2018-12-14T11:02:16.152Z,88.20
2018-12-14T11:04:44.341Z,88.10
2018-12-14T11:07:12.584Z,88.80
2018-12-14T11:09:40.805Z,88.40
2018-12-14T11:12:09.053Z,88.30
2018-12-14T11:14:37.277Z,89.70
2018-12-14T11:17:05.876Z,89.30
2018-12-14T11:19:34.096Z,88.20
2018-12-14T11:22:02.317Z,88.50
2018-12-14T11:24:30.700Z,87.50
2018-12-14T11:26:58.905Z,88.40
2018-12-14T11:29:27.108Z,88.80
2018-12-14T11:31:55.396Z,86.20
2018-12-14T11:34:29.562Z,87.90
2018-12-14T11:36:54.084Z,88.70
2018-12-14T11:39:22.444Z,88.50
2018-12-14T11:41:50.840Z,86.80
2018-12-14T11:44:21.325Z,86.00
2018-12-14T11:46:49.280Z,89.40
2018-12-14T11:49:17.488Z,87.20
2018-12-14T11:51:46.691Z,88.80
2018-12-14T11:54:15.039Z,87.70
2018-12-14T11:56:43.258Z,87.50
2018-12-14T11:59:11.488Z,88.00
2018-12-14T12:01:39.813Z,86.30
2018-12-14T12:04:08.004Z,88.40
2018-12-14T12:06:36.207Z,88.00
2018-12-14T12:09:07.637Z,88.00
2018-12-14T12:11:35.865Z,87.90
2018-12-14T12:14:04.076Z,88.30
2018-12-14T12:16:32.312Z,88.00
2018-12-14T12:19:00.511Z,87.10
2018-12-14T12:21:29.085Z,87.90
2018-12-14T12:23:57.427Z,87.30
2018-12-14T12:26:25.700Z,87.20
2018-12-14T12:28:53.906Z,88.60
2018-12-14T12:31:22.141Z,86.90
2018-12-14T12:33:50.353Z,87.30
2018-12-14T12:36:18.896Z,87.30
2018-12-14T12:38:47.131Z,87.70
2018-12-14T12:41:15.415Z,86.90
2018-12-14T12:43:43.620Z,87.50
2018-12-14T12:46:11.964Z,87.30
2018-12-14T12:48:40.501Z,86.60
2018-12-14T12:51:08.726Z,86.00
2018-12-14T12:53:36.951Z,87.70
2018-12-14T12:56:05.348Z,86.50
2018-12-14T12:58:33.631Z,86.90
2018-12-14T13:01:01.864Z,87.10
2018-12-14T13:03:30.055Z,87.00
2018-12-14T13:05:58.259Z,86.30
2018-12-14T13:08:26.512Z,87.30
2018-12-14T13:10:54.742Z,86.80
2018-12-14T13:13:22.939Z,87.20
2018-12-14T13:15:51.181Z,86.50
2018-12-14T13:18:19.384Z,87.10
2018-12-14T13:20:47.600Z,87.30
2018-12-14T13:23:15.813Z,87.30
2018-12-14T13:25:44.017Z,88.30
2018-12-14T13:28:12.318Z,87.20
2018-12-14T13:30:40.925Z,87.10
2018-12-14T13:33:09.228Z,86.70
2018-12-14T13:35:37.449Z,88.20
2018-12-14T13:38:05.696Z,87.80
2018-12-14T13:40:33.980Z,88.20
2018-12-14T13:43:02.208Z,87.30
2018-12-14T13:45:30.501Z,86.60
2018-12-14T13:47:58.768Z,86.30
2018-12-14T13:50:27.069Z,87.90
2018-12-14T13:52:55.499Z,87.70
2018-12-14T13:55:23.780Z,87.60
2018-12-14T13:57:51.977Z,86.90
2018-12-14T14:00:20.191Z,88.20
2018-12-14T14:02:48.411Z,87.20
2018-12-14T14:05:16.620Z,87.50
2018-12-14T14:07:44.836Z,87.10
2018-12-14T14:10:13.044Z,87.60
2018-12-14T14:12:41.287Z,87.40
2018-12-14T14:15:09.609Z,86.90
2018-12-14T14:17:37.816Z,87.20
2018-12-14T14:20:06.929Z,87.40
2018-12-14T14:22:35.194Z,87.30
2018-12-14T14:25:03.588Z,88.70
2018-12-14T14:27:31.812Z,87.40
2018-12-14T14:30:00.127Z,88.20
2018-12-14T14:32:28.405Z,87.80
2018-12-14T14:34:56.618Z,87.40
2018-12-14T14:37:24.873Z,87.40
2018-12-14T14:39:53.089Z,87.20
2018-12-14T14:42:21.304Z,87.80
2018-12-14T14:44:49.557Z,88.20
2018-12-14T14:47:17.764Z,88.00
2018-12-14T14:49:45.973Z,87.80
2018-12-14T14:52:14.204Z,87.30
2018-12-14T14:54:42.421Z,87.20
2018-12-14T14:57:10.644Z,87.40
2018-12-14T14:59:38.860Z,87.30
2018-12-14T15:02:07.150Z,87.10
2018-12-14T15:04:35.386Z,87.20
2018-12-14T15:07:03.621Z,86.80
2018-12-14T15:09:31.832Z,86.00
2018-12-14T15:12:00.166Z,86.70
2018-12-14T15:14:28.460Z,86.90
2018-12-14T15:16:56.679Z,87.60
2018-12-14T15:19:24.991Z,87.20
2018-12-14T15:21:53.301Z,86.60
2018-12-14T15:24:21.539Z,86.80
2018-12-14T15:26:49.825Z,86.80
2018-12-14T15:29:18.126Z,86.10
2018-12-14T15:31:46.837Z,87.50
2018-12-14T15:34:15.139Z,87.80
2018-12-14T15:36:43.456Z,88.10
2018-12-14T15:39:11.785Z,88.40
2018-12-14T15:41:40.000Z,87.20
2018-12-14T15:44:08.258Z,87.10
2018-12-14T15:46:36.456Z,87.50
2018-12-14T15:49:04.840Z,87.60
2018-12-14T15:51:33.076Z,86.80
2018-12-14T15:54:01.282Z,87.20
2018-12-14T15:56:29.504Z,87.30
2018-12-14T15:58:57.912Z,87.50
2018-12-14T16:01:26.280Z,87.70
2018-12-14T16:03:54.493Z,87.40
2018-12-14T16:06:22.704Z,88.00
2018-12-14T16:08:50.917Z,87.70
2018-12-14T16:11:19.169Z,89.20
2018-12-14T16:13:47.381Z,88.60
2018-12-14T16:16:15.629Z,88.40
2018-12-14T16:18:43.913Z,87.90
2018-12-14T16:21:12.213Z,87.50
2018-12-14T16:23:40.534Z,88.20
2018-12-14T16:26:08.916Z,87.90
2018-12-14T16:28:37.213Z,87.20
2018-12-14T16:31:05.498Z,87.00
2018-12-14T16:33:33.796Z,87.00
2018-12-14T16:36:02.115Z,88.10
2018-12-14T16:38:30.448Z,87.50
2018-12-14T16:40:58.687Z,87.10
2018-12-14T16:43:27.000Z,87.20
2018-12-14T16:45:55.200Z,87.20
2018-12-14T16:48:23.609Z,87.40
2018-12-14T16:50:51.853Z,87.80
2018-12-14T16:53:20.058Z,87.30
2018-12-14T16:55:48.268Z,87.10
2018-12-14T16:58:16.576Z,87.00
2018-12-14T17:00:44.797Z,86.40
2018-12-14T17:03:13.024Z,87.80
2018-12-14T17:05:41.424Z,87.10
2018-12-14T17:08:09.727Z,87.50
2018-12-14T17:10:38.051Z,87.20
2018-12-14T17:13:06.557Z,86.80
2018-12-14T17:15:34.809Z,87.50
2018-12-14T17:18:03.027Z,87.20
2018-12-14T17:20:31.245Z,86.90
2018-12-14T17:22:59.460Z,87.40
2018-12-14T17:25:27.693Z,87.30
2018-12-14T17:27:55.976Z,87.40
2018-12-14T17:30:24.288Z,86.10
2018-12-14T17:32:52.580Z,87.70
2018-12-14T17:35:20.801Z,87.10
2018-12-14T17:37:49.093Z,87.10
2018-12-14T17:40:17.312Z,86.50
2018-12-14T17:42:46.022Z,86.70
2018-12-14T17:45:14.225Z,86.60
2018-12-14T17:47:42.436Z,85.90
2018-12-14T17:50:10.929Z,86.90
2018-12-14T17:52:39.242Z,86.60
2018-12-14T17:55:07.614Z,86.70
2018-12-14T17:57:35.941Z,86.20
2018-12-14T18:00:05.415Z,86.40
2018-12-14T18:02:33.649Z,86.90
2018-12-14T18:05:02.168Z,87.00
2018-12-14T18:07:30.472Z,85.40
2018-12-14T18:09:58.765Z,85.70
2018-12-14T18:12:27.152Z,86.00
2018-12-14T18:14:55.379Z,85.60
2018-12-14T18:17:23.672Z,85.70
2018-12-14T18:19:52.068Z,86.00
2018-12-14T18:22:20.281Z,85.40
2018-12-14T18:24:48.692Z,86.40
2018-12-14T18:27:17.826Z,86.10
2018-12-14T18:29:46.048Z,85.70
2018-12-14T18:32:14.264Z,86.50
2018-12-14T18:34:42.514Z,85.80
2018-12-14T18:37:10.736Z,86.90
2018-12-14T18:39:39.101Z,86.70
2018-12-14T18:42:07.386Z,85.80
2018-12-14T18:44:35.575Z,86.60
2018-12-14T18:47:03.876Z,86.20
2018-12-14T18:49:32.133Z,86.00
2018-12-14T18:52:00.356Z,86.60
2018-12-14T18:54:30.239Z,85.50
2018-12-14T18:56:59.860Z,86.30
2018-12-14T18:59:28.644Z,85.90
2018-12-14T19:01:56.864Z,86.80
2018-12-14T19:04:25.132Z,86.50
2018-12-14T19:06:54.030Z,85.90
2018-12-14T19:09:23.216Z,86.70
2018-12-14T19:11:51.562Z,87.60
2018-12-14T19:14:19.765Z,87.70
2018-12-14T19:16:48.140Z,86.80
2018-12-14T19:19:23.005Z,86.50
2018-12-14T19:21:51.217Z,86.90
2018-12-14T19:24:19.423Z,86.00
2018-12-14T19:26:47.660Z,86.50
2018-12-14T19:29:15.887Z,86.50
2018-12-14T19:31:44.120Z,85.60
2018-12-14T19:34:12.354Z,86.00
2018-12-14T19:36:40.654Z,85.90
2018-12-14T19:39:09.052Z,86.30
2018-12-14T19:41:37.376Z,86.80
2018-12-14T19:44:05.676Z,86.30
2018-12-14T19:46:33.919Z,86.00
2018-12-14T19:49:02.202Z,86.00
2018-12-14T19:51:30.509Z,86.20
2018-12-14T19:53:58.740Z,86.40
2018-12-14T19:56:27.058Z,86.10
2018-12-14T19:58:55.291Z,86.50
2018-12-14T20:01:23.623Z,86.70
2018-12-14T20:03:51.952Z,85.40
2018-12-14T20:06:20.173Z,86.00
2018-12-14T20:08:48.405Z,85.00
2018-12-14T20:11:16.647Z,86.40
2018-12-14T20:13:44.957Z,86.30
2018-12-14T20:16:13.197Z,86.20
2018-12-14T20:18:41.429Z,85.70
2018-12-14T20:21:09.648Z,85.30
2018-12-14T20:23:37.953Z,85.80
2018-12-14T20:26:06.697Z,86.10
2018-12-14T20:28:34.931Z,86.00
2018-12-14T20:31:03.257Z,86.00
2018-12-14T20:33:31.503Z,85.80
2018-12-14T20:35:59.709Z,86.10
2018-12-14T20:38:27.940Z,85.80
2018-12-14T20:40:56.537Z,85.60
2018-12-14T20:43:24.769Z,85.90
2018-12-14T20:45:53.027Z,86.40
2018-12-14T20:48:21.569Z,86.30
2018-12-14T20:50:49.808Z,86.30
2018-12-14T20:53:18.025Z,86.10
2018-12-14T20:55:46.361Z,85.90
2018-12-14T20:58:14.572Z,86.30
2018-12-14T21:00:42.883Z,86.20
2018-12-14T21:03:11.146Z,86.30
2018-12-14T21:05:39.406Z,86.60
2018-12-14T21:08:07.724Z,86.20
2018-12-14T21:10:36.037Z,85.80
2018-12-14T21:13:04.418Z,86.20
2018-12-14T21:15:32.621Z,86.00
2018-12-14T21:18:00.943Z,86.20
2018-12-14T21:20:29.148Z,86.60
2018-12-14T21:22:57.375Z,86.40
2018-12-14T21:25:25.698Z,86.40
2018-12-14T21:27:53.911Z,87.00
2018-12-14T21:30:22.225Z,86.40
2018-12-14T21:32:50.476Z,86.00
2018-12-14T21:35:18.700Z,86.70
2018-12-14T21:37:46.922Z,86.40
2018-12-14T21:40:15.225Z,85.90
2018-12-14T21:42:43.546Z,86.60
2018-12-14T21:45:11.976Z,86.40
2018-12-14T21:47:40.364Z,87.50
2018-12-14T21:50:08.789Z,86.10
2018-12-14T21:52:37.034Z,86.60
2018-12-14T21:55:05.955Z,87.00
2018-12-14T21:57:34.176Z,86.70
2018-12-14T22:00:02.498Z,86.40
2018-12-14T22:02:30.813Z,86.90
2018-12-14T22:04:59.038Z,87.30
2018-12-14T22:07:27.256Z,87.00
2018-12-14T22:09:55.485Z,86.90
2018-12-14T22:12:23.704Z,86.80
2018-12-14T22:14:51.917Z,87.00
2018-12-14T22:17:20.159Z,87.40
2018-12-14T22:19:48.405Z,87.10
2018-12-14T22:22:16.629Z,87.00
2018-12-14T22:24:44.867Z,87.00
2018-12-14T22:27:13.081Z,86.80
2018-12-14T22:29:41.320Z,87.00
2018-12-14T22:32:09.552Z,87.70
2018-12-14T22:34:37.771Z,87.20
2018-12-14T22:37:06.054Z,87.00
2018-12-14T22:39:34.709Z,87.10
2018-12-14T22:42:02.999Z,87.40
2018-12-14T22:44:31.226Z,87.50
2018-12-14T22:46:59.533Z,87.40
2018-12-14T22:49:27.844Z,87.80
2018-12-14T22:51:56.067Z,87.00
2018-12-14T22:54:24.311Z,87.80
2018-12-14T22:56:54.193Z,87.70
2018-12-14T22:59:22.414Z,87.70
2018-12-14T23:01:50.737Z,87.50
2018-12-14T23:04:19.110Z,88.40
2018-12-14T23:06:47.333Z,87.40
2018-12-14T23:09:15.723Z,87.60
2018-12-14T23:11:43.935Z,87.80
2018-12-14T23:14:12.238Z,87.30
2018-12-14T23:16:40.597Z,87.50
2018-12-14T23:19:08.828Z,87.60
2018-12-14T23:21:37.208Z,87.90
2018-12-14T23:24:05.587Z,87.40
2018-12-14T23:26:33.794Z,88.10
2018-12-14T23:29:02.022Z,87.80
2018-12-14T23:31:30.333Z,88.60
2018-12-14T23:33:58.533Z,88.70
2018-12-14T23:36:26.740Z,88.40
2018-12-14T23:38:55.031Z,88.70
2018-12-14T23:41:23.289Z,87.90
2018-12-14T23:43:51.489Z,88.50
2018-12-14T23:46:19.708Z,88.20
2018-12-14T23:48:47.970Z,88.00
2018-12-14T23:51:16.184Z,88.70
2018-12-14T23:53:44.451Z,88.50
2018-12-14T23:56:12.749Z,88.60
2018-12-14T23:58:40.956Z,88.80
